Time;durP1;ratioP1;P1;durP2;ratioP2;P2;SDS_P1;SDS_P2;PMS_P1;PMS_P2;Temp;Humidity;BMP_temperature;BMP_pressure;BME280_temperature;BME280_humidity;BME280_pressure;Samples;Min_cycle;Max_cycle;Signal;HPM_P1;HPM_P2
2021/04/25 00:02:15;;;;;;;8.02;5.53;;;;;;;14.47;68.58;101306.41;143747;647;47022;-73
2021/04/25 00:04:42;;;;;;;12.40;6.37;;;;;;;14.49;68.44;101316.91;143753;587;47010;-74
2021/04/25 00:07:09;;;;;;;9.68;6.32;;;;;;;14.49;68.62;101308.97;143752;564;46020;-74
2021/04/25 00:09:36;;;;;;;9.85;6.85;;;;;;;14.49;68.65;101308.97;143756;600;46011;-78
2021/04/25 00:12:04;;;;;;;9.90;6.32;;;;;;;14.51;68.31;101307.16;143750;605;47020;-78
2021/04/25 00:14:32;;;;;;;8.88;6.25;;;;;;;14.50;68.47;101313.34;143754;606;46906;-74
2021/04/25 00:16:59;;;;;;;10.52;6.15;;;;;;;14.46;68.43;101304.69;143752;581;46018;-74
2021/04/25 00:19:27;;;;;;;9.38;6.18;;;;;;;14.49;68.53;101301.06;143755;577;46033;-76
2021/04/25 00:21:54;;;;;;;9.77;6.32;;;;;;;14.48;68.47;101299.34;143753;565;46018;-77
2021/04/25 00:24:21;;;;;;;9.25;5.90;;;;;;;14.52;68.47;101303.59;143752;585;46906;-78
2021/04/25 00:26:48;;;;;;;12.88;7.80;;;;;;;14.44;69.56;101305.66;143749;585;46010;-74
2021/04/25 00:29:15;;;;;;;11.25;7.20;;;;;;;14.45;68.59;101297.66;143753;582;47018;-79
2021/04/25 00:31:42;;;;;;;10.82;6.25;;;;;;;14.46;68.60;101301.16;143755;556;46014;-76
2021/04/25 00:34:10;;;;;;;10.23;6.78;;;;;;;14.45;68.68;101297.66;143754;574;46010;-78
2021/04/25 00:36:37;;;;;;;13.07;6.95;;;;;;;14.44;68.77;101300.38;143753;575;46020;-83
2021/04/25 00:39:05;;;;;;;13.32;7.45;;;;;;;14.45;68.70;101296.78;143758;678;46010;-91
2021/04/25 00:41:33;;;;;;;15.13;9.15;;;;;;;14.44;69.97;101295.94;143755;628;46023;-87
2021/04/25 00:44:00;;;;;;;10.98;7.25;;;;;;;14.54;68.88;101299.13;143754;587;46010;-89
2021/04/25 00:46:27;;;;;;;12.90;6.90;;;;;;;14.59;68.62;101302.47;143756;588;45021;-86
2021/04/25 00:48:54;;;;;;;9.45;6.12;;;;;;;14.51;69.17;101304.53;143755;620;47012;-77
2021/04/25 00:51:25;;;;;;;9.50;6.12;;;;;;;14.44;68.87;101300.38;143748;604;46022;-79
2021/04/25 00:53:53;;;;;;;8.43;5.97;;;;;;;14.27;69.93;101296.53;143754;620;46010;-79
2021/04/25 00:56:20;;;;;;;8.40;5.30;;;;;;;14.28;68.95;101303.53;143754;576;45021;-78
2021/04/25 00:58:48;;;;;;;8.85;5.05;;;;;;;14.07;70.24;101301.63;143757;582;46032;-80
2021/04/25 01:01:16;;;;;;;8.13;4.97;;;;;;;13.94;70.48;101298.50;143755;658;45906;-82
2021/04/25 01:03:43;;;;;;;9.38;5.32;;;;;;;13.96;70.39;101294.91;143752;570;47010;-81
2021/04/25 01:06:11;;;;;;;8.40;5.65;;;;;;;13.88;70.55;101287.22;143753;591;46020;-82
2021/04/25 01:08:38;;;;;;;11.68;6.72;;;;;;;13.82;70.99;101283.91;143747;598;46019;-81
2021/04/25 01:11:06;;;;;;;9.15;5.70;;;;;;;13.85;71.23;101286.47;143749;599;46906;-82
2021/04/25 01:13:33;;;;;;;12.57;8.15;;;;;;;13.82;70.67;101292.72;143752;569;46010;-80
2021/04/25 01:16:00;;;;;;;12.15;7.72;;;;;;;13.87;70.53;101290.81;143748;573;46010;-74
2021/04/25 01:18:27;;;;;;;11.38;7.35;;;;;;;13.94;69.98;101296.75;143754;626;46010;-73
2021/04/25 01:21:06;;;;;;;10.10;7.07;;;;;;;13.91;70.44;101296.84;143748;569;46020;-73
2021/04/25 01:23:34;;;;;;;9.30;6.28;;;;;;;13.99;69.76;101301.87;143751;596;46012;-74
2021/04/25 01:26:01;;;;;;;11.55;7.05;;;;;;;14.02;69.48;101294.72;143751;565;46010;-76
2021/04/25 01:28:29;;;;;;;9.02;5.37;;;;;;;14.12;69.40;101305.84;143752;578;47012;-76
2021/04/25 01:30:56;;;;;;;9.30;5.90;;;;;;;14.12;69.21;101307.59;143749;614;46019;-75
2021/04/25 01:33:28;;;;;;;7.70;5.03;;;;;;;14.13;69.23;101307.53;143752;586;46906;-75
2021/04/25 01:35:55;;;;;;;9.32;5.72;;;;;;;14.16;69.14;101306.56;143751;597;46020;-74
2021/04/25 01:38:22;;;;;;;8.68;5.78;;;;;;;14.18;69.06;101305.63;143754;607;47012;-74
2021/04/25 01:40:50;;;;;;;8.65;5.75;;;;;;;14.16;69.67;101298.66;143744;609;46014;-74
2021/04/25 01:43:17;;;;;;;9.65;5.87;;;;;;;14.22;68.94;101301.94;143752;589;46010;-77
2021/04/25 01:45:44;;;;;;;8.70;5.80;;;;;;;14.22;69.06;101304.59;143750;564;47010;-74
2021/04/25 01:48:11;;;;;;;11.38;6.85;;;;;;;14.23;69.32;101300.19;143753;569;47012;-80
2021/04/25 01:50:39;;;;;;;10.30;6.20;;;;;;;14.28;68.88;101298.25;143748;580;47020;-75
2021/04/25 01:53:10;;;;;;;8.70;5.95;;;;;;;14.34;68.83;101299.84;143751;595;46010;-75
2021/04/25 01:55:38;;;;;;;10.45;7.00;;;;;;;14.14;70.14;101290.78;143753;592;46010;-74
2021/04/25 01:58:06;;;;;;;9.07;5.32;;;;;;;13.97;70.62;101301.91;143751;657;47012;-75
2021/04/25 02:00:39;;;;;;;7.87;5.10;;;;;;;14.05;69.89;101304.28;143751;576;46906;-75
2021/04/25 02:03:06;;;;;;;8.60;4.95;;;;;;;14.15;69.33;101303.09;143748;585;47010;-76
2021/04/25 02:05:34;;;;;;;9.55;6.28;;;;;;;14.04;70.68;101300.78;143744;573;46020;-75
2021/04/25 02:08:02;;;;;;;14.40;8.43;;;;;;;14.08;70.08;101306.84;143755;573;45018;-77
2021/04/25 02:10:29;;;;;;;16.30;9.70;;;;;;;14.19;69.16;101301.22;143749;589;47023;-78
2021/04/25 02:12:56;;;;;;;12.52;7.97;;;;;;;14.14;69.28;101304.00;143745;635;46018;-77
2021/04/25 02:15:26;;;;;;;12.73;7.80;;;;;;;14.21;68.98;101294.09;143753;618;47008;-77
2021/04/25 02:17:53;;;;;;;11.15;7.20;;;;;;;14.14;69.59;101297.84;143754;586;46019;-78
2021/04/25 02:20:23;;;;;;;11.55;7.60;;;;;;;14.04;69.65;101292.88;143752;629;46012;-78
2021/04/25 02:22:52;;;;;;;12.88;8.30;;;;;;;14.02;69.30;101291.19;143749;631;46019;-79
2021/04/25 02:25:21;;;;;;;12.27;8.48;;;;;;;14.00;70.11;101296.53;143752;619;47008;-81
2021/04/25 02:27:49;;;;;;;14.70;8.98;;;;;;;14.04;69.09;101295.53;143752;591;47012;-81
2021/04/25 02:30:25;;;;;;;14.40;8.75;;;;;;;14.07;69.09;101301.63;143742;569;46906;-81
2021/04/25 02:32:53;;;;;;;13.32;8.30;;;;;;;14.12;69.01;101295.28;143750;577;46906;-80
2021/04/25 02:35:23;;;;;;;13.02;7.93;;;;;;;14.15;68.29;101299.59;143753;647;46010;-80
2021/04/25 02:37:51;;;;;;;14.93;8.43;;;;;;;14.18;68.81;101297.69;143755;584;46011;-80
2021/04/25 02:40:22;;;;;;;11.93;7.72;;;;;;;14.15;68.54;101296.94;143749;613;46018;-75
2021/04/25 02:42:50;;;;;;;14.57;8.30;;;;;;;14.11;68.77;101295.34;143752;638;46010;-75
2021/04/25 02:45:19;;;;;;;14.38;8.57;;;;;;;14.07;68.73;101286.62;143754;587;46011;-74
2021/04/25 02:47:50;;;;;;;12.55;8.07;;;;;;;14.11;68.85;101287.41;143752;573;46010;-79
2021/04/25 02:50:20;;;;;;;12.57;7.90;;;;;;;14.12;68.84;101283.81;143754;631;45018;-73
2021/04/25 02:52:47;;;;;;;15.10;8.32;;;;;;;14.04;68.87;101287.59;143752;592;46013;-74
2021/04/25 02:55:15;;;;;;;11.98;8.23;;;;;;;14.01;68.76;101287.72;143747;622;47008;-74
2021/04/25 02:57:43;;;;;;;12.43;8.25;;;;;;;13.97;69.19;101288.72;143750;576;46018;-74
2021/04/25 03:00:15;;;;;;;10.82;7.40;;;;;;;13.92;69.62;101287.16;143742;596;46028;-74
2021/04/25 03:02:42;;;;;;;12.57;7.35;;;;;;;13.99;69.25;101286.03;143749;589;46018;-74
2021/04/25 03:05:12;;;;;;;11.50;7.22;;;;;;;13.94;69.37;101290.59;143751;622;46020;-74
2021/04/25 03:07:39;;;;;;;10.73;6.60;;;;;;;13.95;69.06;101279.97;143754;583;45029;-74
2021/04/25 03:10:10;;;;;;;12.55;7.40;;;;;;;13.94;69.49;101278.28;143748;564;47023;-74
2021/04/25 03:12:37;;;;;;;10.85;7.40;;;;;;;13.86;69.60;101282.94;143752;583;46010;-78
2021/04/25 03:15:10;;;;;;;14.43;8.43;;;;;;;13.68;70.58;101285.25;143750;583;46010;-77
2021/04/25 03:17:38;;;;;;;12.65;7.75;;;;;;;13.72;69.90;101299.19;143752;622;47010;-77
2021/04/25 03:20:08;;;;;;;12.45;7.53;;;;;;;13.75;69.64;101296.47;143744;615;47012;-77
2021/04/25 03:22:36;;;;;;;37.05;20.50;;;;;;;13.79;69.73;101294.59;143751;623;46011;-78
2021/04/25 03:25:05;;;;;;;62.67;33.65;;;;;;;13.83;69.72;101294.47;143753;604;46020;-76
2021/04/25 03:27:32;;;;;;;69.03;37.40;;;;;;;13.85;69.42;101297.03;143746;569;47010;-73
2021/04/25 03:29:59;;;;;;;51.47;28.95;;;;;;;13.87;69.36;101293.44;143750;600;46014;-72
2021/04/25 03:32:26;;;;;;;35.30;19.12;;;;;;;13.95;69.65;101289.69;143747;577;47008;-72
2021/04/25 03:39:29;;;;;;;13.25;8.45;;;;;;;13.91;69.66;101291.56;143753;576;46012;-72
2021/04/25 03:41:56;;;;;;;13.68;8.63;;;;;;;13.90;69.62;101294.25;143750;576;46018;-79
2021/04/25 03:44:23;;;;;;;14.20;8.60;;;;;;;13.82;70.25;101286.56;143749;598;46018;-74
2021/04/25 03:46:50;;;;;;;13.40;8.43;;;;;;;13.80;70.43;101280.50;143747;570;46018;-74
2021/04/25 03:49:20;;;;;;;12.90;8.38;;;;;;;13.77;70.50;101288.50;143752;580;47012;-75
2021/04/25 03:51:49;;;;;;;13.35;8.40;;;;;;;13.73;70.62;101286.88;143751;587;46906;-74
2021/04/25 03:54:17;;;;;;;11.93;8.25;;;;;;;13.73;70.44;101298.28;143752;634;46010;-74
2021/04/25 03:56:44;;;;;;;14.45;8.32;;;;;;;13.67;71.19;101288.81;143749;584;46020;-74
2021/04/25 03:59:11;;;;;;;12.80;7.75;;;;;;;13.74;69.90;101283.31;143753;623;46018;-74
2021/04/25 04:01:39;;;;;;;12.15;8.40;;;;;;;13.73;70.67;101284.25;143750;571;46021;-74
2021/04/25 04:04:06;;;;;;;11.95;7.95;;;;;;;13.86;69.78;101283.78;143751;609;46018;-74
2021/04/25 04:06:33;;;;;;;14.77;8.55;;;;;;;13.78;69.81;101287.56;143752;583;46011;-74
2021/04/25 04:09:01;;;;;;;12.00;7.95;;;;;;;13.77;69.97;101283.22;143751;588;46019;-75
2021/04/25 04:11:28;;;;;;;11.82;7.50;;;;;;;13.83;69.87;101288.28;143744;574;47022;-74
2021/04/25 04:13:56;;;;;;;12.75;8.27;;;;;;;13.74;70.31;101294.75;143749;606;46018;-76
2021/04/25 04:16:24;;;;;;;14.45;8.57;;;;;;;13.74;70.53;101304.41;143752;585;46010;-74
2021/04/25 04:18:51;;;;;;;16.25;8.63;;;;;;;13.76;69.84;101307.91;143752;574;46020;-76
2021/04/25 04:21:18;;;;;;;14.68;8.70;;;;;;;13.75;69.81;101311.44;143749;597;46018;-76
2021/04/25 04:23:45;;;;;;;11.98;8.20;;;;;;;13.73;71.05;101313.28;143752;589;46010;-77
2021/04/25 04:26:13;;;;;;;14.63;8.57;;;;;;;13.75;69.97;101306.16;143751;570;46010;-79
2021/04/25 04:28:40;;;;;;;12.02;8.50;;;;;;;13.74;70.58;101309.69;143753;627;46018;-75
2021/04/25 04:31:07;;;;;;;15.00;8.57;;;;;;;13.75;70.34;101306.16;143748;602;46019;-75
2021/04/25 04:33:37;;;;;;;14.90;9.40;;;;;;;13.79;69.78;101306.03;143751;566;46010;-74
2021/04/25 04:36:06;;;;;;;16.40;8.82;;;;;;;13.85;69.74;101313.72;143747;588;46010;-78
2021/04/25 04:38:34;;;;;;;12.25;8.05;;;;;;;13.89;70.55;101314.50;143753;654;47013;-77
2021/04/25 04:41:04;;;;;;;14.02;7.95;;;;;;;13.91;69.92;101312.66;143750;592;46022;-80
2021/04/25 04:43:31;;;;;;;14.02;8.60;;;;;;;13.96;69.83;101317.81;143750;610;46010;-73
2021/04/25 04:45:58;;;;;;;12.88;7.95;;;;;;;13.94;69.61;101317.88;143752;597;46021;-72
2021/04/25 04:48:25;;;;;;;11.50;7.82;;;;;;;13.95;69.72;101321.37;143751;655;46010;-79
2021/04/25 04:50:52;;;;;;;12.95;9.18;;;;;;;13.91;69.62;101312.66;143753;611;45022;-79
2021/04/25 04:53:19;;;;;;;13.73;8.40;;;;;;;14.07;69.53;101328.03;143752;630;46018;-79
2021/04/25 04:55:46;;;;;;;13.45;8.07;;;;;;;14.08;69.50;101324.44;143751;584;46020;-81
2021/04/25 04:58:13;;;;;;;13.48;8.27;;;;;;;14.08;69.38;101325.34;143753;581;46016;-79
2021/04/25 05:00:40;;;;;;;13.80;8.57;;;;;;;14.04;69.39;101324.56;143744;594;47012;-76
2021/04/25 05:03:07;;;;;;;16.42;9.35;;;;;;;13.98;69.63;101319.50;143752;577;45043;-77
2021/04/25 05:05:35;;;;;;;14.30;9.30;;;;;;;13.93;70.13;101316.13;143751;577;46020;-80
2021/04/25 05:08:02;;;;;;;12.07;7.53;;;;;;;13.84;70.64;101312.00;143754;577;46010;-77
2021/04/25 05:10:29;;;;;;;12.80;8.73;;;;;;;13.93;70.16;101302.06;143750;683;46012;-82
2021/04/25 05:12:56;;;;;;;15.82;9.48;;;;;;;13.88;70.48;101308.34;143753;601;46010;-82
2021/04/25 05:15:23;;;;;;;14.68;9.40;;;;;;;13.98;70.18;101301.03;143751;571;46013;-76
2021/04/25 05:17:50;;;;;;;15.63;9.82;;;;;;;13.90;70.44;101297.75;143751;580;46018;-76
2021/04/25 05:20:17;;;;;;;16.27;10.63;;;;;;;13.97;70.26;101301.03;143749;570;46012;-76
2021/04/25 05:22:45;;;;;;;14.10;9.80;;;;;;;13.95;70.51;101302.88;143749;607;46008;-76
2021/04/25 05:25:12;;;;;;;15.05;9.55;;;;;;;14.04;69.88;101311.34;143745;635;46010;-87
2021/04/25 05:27:39;;;;;;;15.43;9.40;;;;;;;13.97;70.42;101309.84;143752;616;47008;-88
2021/04/25 05:30:07;;;;;;;14.50;9.68;;;;;;;14.10;69.87;101312.94;143749;583;46013;-88
2021/04/25 05:32:34;;;;;;;14.70;9.40;;;;;;;14.16;69.40;101311.84;143749;688;46018;-87
2021/04/25 05:35:01;;;;;;;15.10;9.80;;;;;;;14.14;69.65;101308.41;143750;566;46020;-88
2021/04/25 05:37:29;;;;;;;13.23;9.10;;;;;;;14.15;69.91;101318.09;143755;581;47012;-79
2021/04/25 05:39:56;;;;;;;16.00;9.85;;;;;;;14.17;69.55;101310.94;143752;652;46022;-79
2021/04/25 05:42:24;;;;;;;15.23;10.40;;;;;;;14.26;69.42;101315.09;143753;570;45906;-78
2021/04/25 05:44:51;;;;;;;17.40;11.73;;;;;;;14.24;70.74;101325.66;143753;588;46018;-79
2021/04/25 05:47:19;;;;;;;16.27;10.73;;;;;;;14.38;69.55;101327.88;143754;569;47012;-78
2021/04/25 05:49:46;;;;;;;15.70;10.15;;;;;;;14.50;69.43;101330.09;143744;582;46013;-78
2021/04/25 05:52:13;;;;;;;13.18;7.87;;;;;;;14.63;69.40;101322.63;143751;625;46010;-77
2021/04/25 05:54:40;;;;;;;14.65;9.13;;;;;;;14.54;70.51;101314.97;143755;569;46010;-77
2021/04/25 05:57:08;;;;;;;16.25;8.73;;;;;;;14.59;69.11;101323.59;143752;619;47012;-79
2021/04/25 05:59:39;;;;;;;15.02;9.45;;;;;;;14.66;68.95;101326.94;143753;564;46022;-81
2021/04/25 06:02:07;;;;;;;14.15;8.70;;;;;;;14.71;69.32;101330.28;143750;563;46018;-83
2021/04/25 06:04:34;;;;;;;17.62;10.80;;;;;;;14.82;69.49;101329.91;143752;571;46010;-87
2021/04/25 06:07:02;;;;;;;16.08;9.23;;;;;;;14.84;69.38;101335.97;143754;657;46012;-73
2021/04/25 06:09:29;;;;;;;13.55;9.70;;;;;;;14.80;69.11;101337.00;143749;565;48023;-80
2021/04/25 06:11:56;;;;;;;14.25;10.32;;;;;;;14.88;68.87;101338.47;143754;566;46010;-89
2021/04/25 06:14:23;;;;;;;15.57;9.57;;;;;;;14.91;69.14;101340.12;143746;615;46011;-78
2021/04/25 06:16:50;;;;;;;14.77;10.55;;;;;;;14.96;69.30;101346.13;143753;660;47012;-83
2021/04/25 06:19:18;;;;;;;15.65;10.02;;;;;;;15.03;68.83;101347.59;143748;576;46012;-80
2021/04/25 06:21:45;;;;;;;17.65;11.82;;;;;;;15.06;69.00;101341.34;143752;571;46010;-82
2021/04/25 06:24:12;;;;;;;19.05;11.23;;;;;;;15.18;68.70;101346.19;143752;610;46030;-86
2021/04/25 06:26:39;;;;;;;16.48;9.60;;;;;;;15.26;68.89;101345.06;143753;590;46018;-88
2021/04/25 06:29:07;;;;;;;19.52;8.10;;;;;;;15.29;68.75;101353.72;143748;591;47020;-86
2021/04/25 06:31:34;;;;;;;16.35;9.43;;;;;;;15.44;68.66;101364.66;143754;622;46010;-89
2021/04/25 06:34:03;;;;;;;13.60;8.13;;;;;;;15.50;67.87;101359.13;143753;628;46010;-90
2021/04/25 06:36:30;;;;;;;14.85;7.60;;;;;;;15.57;68.28;101366.78;143753;577;47012;-89
2021/04/25 06:38:58;;;;;;;13.02;8.23;;;;;;;15.88;66.86;101364.72;143747;648;45014;-89
2021/04/25 06:41:27;;;;;;;17.27;7.18;;;;;;;15.99;67.21;101362.53;143754;639;46010;-89
2021/04/25 06:43:57;;;;;;;16.37;9.48;;;;;;;16.29;67.34;101354.22;143753;599;46010;-90
2021/04/25 06:46:25;;;;;;;14.80;6.55;;;;;;;16.48;64.34;101356.13;143752;644;46018;-90
2021/04/25 06:48:52;;;;;;;18.20;8.32;;;;;;;16.61;66.11;101359.97;143753;563;46033;-87
2021/04/25 06:51:19;;;;;;;18.10;8.82;;;;;;;16.83;67.22;101356.41;143750;653;46906;-89
2021/04/25 06:53:46;;;;;;;12.57;7.62;;;;;;;16.70;60.46;101345.44;143750;580;46020;-86
2021/04/25 06:56:13;;;;;;;16.40;7.20;;;;;;;16.63;62.25;101349.31;143753;640;46018;-87
2021/04/25 06:58:40;;;;;;;12.52;7.22;;;;;;;16.57;61.01;101350.44;143751;564;46020;-87
2021/04/25 07:01:10;;;;;;;11.70;7.22;;;;;;;16.56;65.65;101359.31;143751;705;46010;-86
2021/04/25 07:03:38;;;;;;;11.75;7.20;;;;;;;16.40;60.40;101345.84;143746;700;46022;-86
2021/04/25 07:06:09;;;;;;;10.38;7.55;;;;;;;16.57;65.09;101351.28;143753;730;47012;-89
2021/04/25 07:08:36;;;;;;;11.35;7.93;;;;;;;16.70;64.36;101350.75;143750;669;47010;-89
2021/04/25 07:11:03;;;;;;;12.95;7.30;;;;;;;16.68;63.05;101350.81;143751;569;46010;-95
2021/04/25 07:13:30;;;;;;;13.40;7.90;;;;;;;16.67;59.41;101349.09;143752;667;45021;-89
2021/04/25 07:15:57;;;;;;;13.98;7.57;;;;;;;16.72;62.67;101348.91;143756;609;47012;-88
2021/04/25 07:18:24;;;;;;;11.48;7.12;;;;;;;16.66;59.42;101339.44;143751;657;46020;-89
2021/04/25 07:20:54;;;;;;;10.93;7.10;;;;;;;16.51;58.36;101334.78;143754;580;46010;-88
2021/04/25 07:23:24;;;;;;;10.85;7.47;;;;;;;16.60;61.82;101345.00;143753;669;46018;-88
2021/04/25 07:25:54;;;;;;;13.75;7.97;;;;;;;16.43;58.76;101332.47;143752;667;46018;-86
2021/04/25 07:28:23;;;;;;;12.25;8.02;;;;;;;16.36;59.48;101336.28;143742;569;47020;-86
2021/04/25 07:30:57;;;;;;;12.18;7.85;;;;;;;16.59;57.91;101330.00;143757;735;45018;-93
2021/04/25 07:33:25;;;;;;;10.95;7.50;;;;;;;16.89;59.65;101334.91;143757;612;45020;-87
2021/04/25 07:35:52;;;;;;;10.13;7.50;;;;;;;17.13;59.21;101335.63;143754;565;48008;-86
2021/04/25 07:38:20;;;;;;;11.25;7.55;;;;;;;17.27;59.08;101332.31;143752;565;46035;-90
2021/04/25 07:40:47;;;;;;;10.88;7.43;;;;;;;17.17;56.80;101323.06;143751;651;46018;-88
2021/04/25 07:43:16;;;;;;;12.30;7.53;;;;;;;17.38;58.04;101321.22;143754;593;46012;-88
2021/04/25 07:45:44;;;;;;;10.32;7.22;;;;;;;17.30;53.36;101334.81;143758;590;46010;-87
2021/04/25 07:48:12;;;;;;;10.98;7.37;;;;;;;17.55;57.42;101326.59;143751;627;46022;-89
2021/04/25 07:50:39;;;;;;;11.35;7.50;;;;;;;17.65;56.11;101332.31;143755;641;46010;-87
2021/04/25 07:53:06;;;;;;;10.68;7.82;;;;;;;17.70;56.76;101337.38;143745;594;46020;-87
2021/04/25 07:55:33;;;;;;;11.77;7.22;;;;;;;17.60;57.42;101331.66;143755;600;46010;-86
2021/04/25 07:58:01;;;;;;;10.35;6.80;;;;;;;17.62;57.59;101326.28;143753;610;46012;-89
2021/04/25 08:00:28;;;;;;;9.93;6.75;;;;;;;17.48;57.49;101333.13;143753;612;46010;-85
2021/04/25 08:02:55;;;;;;;10.25;6.32;;;;;;;17.54;54.57;101337.28;143752;636;46010;-88
2021/04/25 08:05:24;;;;;;;9.48;5.87;;;;;;;17.51;55.21;101329.44;143752;623;46010;-86
2021/04/25 08:07:52;;;;;;;10.00;6.60;;;;;;;17.32;52.24;101338.28;143750;650;46021;-86
2021/04/25 08:10:19;;;;;;;9.38;7.18;;;;;;;17.58;55.25;101326.44;143751;563;46018;-84
2021/04/25 08:12:46;;;;;;;9.88;6.60;;;;;;;17.39;55.02;101334.41;143754;629;46011;-86
2021/04/25 08:15:14;;;;;;;10.90;6.30;;;;;;;17.00;51.18;101332.63;143755;575;46016;-87
2021/04/25 08:17:41;;;;;;;13.30;6.78;;;;;;;17.32;51.71;101335.63;143748;563;46020;-85
2021/04/25 08:20:09;;;;;;;11.45;6.05;;;;;;;17.24;52.12;101333.31;143753;715;46011;-87
2021/04/25 08:22:36;;;;;;;10.95;5.70;;;;;;;17.14;51.26;101333.81;143753;564;46010;-82
2021/04/25 08:25:05;;;;;;;13.40;6.25;;;;;;;16.84;52.93;101336.88;143754;611;46020;-85
2021/04/25 08:27:34;;;;;;;8.75;5.78;;;;;;;16.49;50.61;101336.66;143753;597;47022;-87
2021/04/25 08:30:03;;;;;;;11.63;6.25;;;;;;;16.45;49.99;101337.72;143752;606;46018;-90
2021/04/25 08:32:33;;;;;;;8.65;6.45;;;;;;;16.45;51.38;101332.41;143752;597;47010;-92
2021/04/25 08:35:00;;;;;;;9.18;6.45;;;;;;;16.48;51.76;101334.91;143754;684;46010;-86
2021/04/25 08:37:28;;;;;;;9.30;6.40;;;;;;;16.38;51.95;101345.06;143750;587;47021;-87
2021/04/25 08:39:55;;;;;;;10.45;6.70;;;;;;;16.45;52.41;101340.34;143753;608;46010;-88
2021/04/25 08:42:22;;;;;;;12.60;7.65;;;;;;;16.42;52.29;101325.44;143745;567;47020;-86
2021/04/25 08:44:49;;;;;;;9.10;6.80;;;;;;;16.26;51.42;101334.97;143757;564;46010;-91
2021/04/25 08:47:16;;;;;;;10.75;6.65;;;;;;;16.28;51.41;101333.97;143751;612;47020;-94
2021/04/25 08:49:48;;;;;;;9.82;6.72;;;;;;;16.21;52.37;101333.38;143752;603;46010;-88
2021/04/25 08:52:16;;;;;;;9.98;6.65;;;;;;;16.31;52.57;101333.84;143755;564;46010;-88
2021/04/25 08:54:43;;;;;;;11.80;7.55;;;;;;;16.24;52.59;101343.00;143753;593;46012;-92
2021/04/25 08:57:10;;;;;;;10.15;6.45;;;;;;;16.47;51.80;101344.66;143750;662;47020;-89
2021/04/25 08:59:37;;;;;;;10.27;7.15;;;;;;;16.48;52.68;101341.06;143751;601;46907;-93
2021/04/25 09:02:04;;;;;;;12.52;7.20;;;;;;;16.62;52.51;101348.44;143755;579;46020;-87
2021/04/25 09:04:31;;;;;;;11.30;7.18;;;;;;;16.51;51.36;101340.97;143756;658;46011;-92
2021/04/25 09:07:13;;;;;;;10.13;7.45;;;;;;;16.78;52.45;101343.31;143749;589;45023;-90
2021/04/25 09:10:00;;;;;;;10.93;7.28;;;;;;;16.89;51.18;101350.84;143753;602;46018;-91
2021/04/25 09:12:43;;;;;;;11.60;7.72;;;;;;;16.87;52.19;101348.22;143756;643;45021;-92
2021/04/25 09:15:34;;;;;;;11.02;7.60;;;;;;;17.12;51.66;101349.81;143755;563;46018;-92
2021/04/25 09:18:05;;;;;;;9.60;6.80;;;;;;;17.28;51.34;101346.44;143755;599;46012;-90
2021/04/25 09:20:47;;;;;;;9.40;7.03;;;;;;;17.06;50.26;101336.84;143754;497;47012;-91
2021/04/25 09:23:29;;;;;;;9.80;7.37;;;;;;;17.52;51.59;101328.50;143754;584;46010;-90
2021/04/25 09:26:06;;;;;;;10.50;7.10;;;;;;;17.25;49.61;101329.75;143753;638;48008;-89
2021/04/25 09:28:40;;;;;;;9.88;6.97;;;;;;;17.49;51.11;101326.00;143756;627;46014;-94
2021/04/25 09:31:16;;;;;;;11.25;8.40;;;;;;;17.62;50.91;101329.81;143756;570;46012;-92
2021/04/25 09:34:03;;;;;;;10.30;6.45;;;;;;;17.83;50.40;101327.06;143756;683;46020;-90
2021/04/25 09:36:30;;;;;;;13.62;7.30;;;;;;;18.06;51.07;101324.16;143755;604;47021;-93
2021/04/25 09:39:13;;;;;;;11.27;7.47;;;;;;;18.20;50.46;101325.25;143755;645;46022;-91
2021/04/25 09:41:41;;;;;;;8.77;6.20;;;;;;;18.03;48.50;101319.00;143759;674;46010;-91
2021/04/25 09:44:35;;;;;;;8.25;6.03;;;;;;;18.12;46.07;101322.97;143755;598;46021;-92
2021/04/25 09:49:49;;;;;;;8.55;5.68;;;;;;;18.38;46.75;101313.66;143757;589;45934;-93
2021/04/25 09:52:38;;;;;;;8.32;6.07;;;;;;;18.42;46.76;101285.13;143755;607;47010;-92
2021/04/25 09:55:32;;;;;;;9.02;6.03;;;;;;;18.69;46.98;101306.78;143760;566;45020;-92
2021/04/25 09:58:08;;;;;;;11.85;6.62;;;;;;;18.63;46.76;101303.56;143759;635;46019;-91
2021/04/25 10:00:50;;;;;;;10.02;6.95;;;;;;;18.81;47.18;101305.28;143754;575;46012;-94
2021/04/25 10:03:30;;;;;;;12.60;8.45;;;;;;;18.94;44.65;101306.38;143758;600;45018;-88
2021/04/25 10:06:08;;;;;;;10.65;6.80;;;;;;;19.56;46.19;101304.75;143756;602;46010;-93
2021/04/25 10:08:40;;;;;;;8.45;5.78;;;;;;;19.94;43.95;101296.41;143757;681;46020;-92
2021/04/25 10:11:19;;;;;;;8.50;5.80;;;;;;;19.77;43.57;101300.88;143759;574;45018;-90
2021/04/25 10:13:56;;;;;;;12.45;8.07;;;;;;;19.90;44.26;101292.22;143759;619;46010;-91
2021/04/25 10:16:35;;;;;;;10.48;5.68;;;;;;;20.10;43.00;101291.06;143760;569;46010;-93
2021/04/25 10:19:14;;;;;;;8.32;5.95;;;;;;;20.09;42.07;101290.22;143758;493;46012;-92
2021/04/25 10:24:19;;;;;;;8.02;5.60;;;;;;;19.95;42.45;101283.00;143760;573;45012;-93
2021/04/25 10:27:12;;;;;;;10.45;6.78;;;;;;;20.12;42.15;101279.34;143753;580;45026;-85
2021/04/25 10:32:44;;;;;;;10.07;5.90;;;;;;;20.23;41.30;101281.37;143757;600;46012;-91
2021/04/25 10:35:22;;;;;;;9.77;5.95;;;;;;;20.47;41.23;101280.84;143756;586;45019;-85
2021/04/25 10:37:50;;;;;;;9.07;5.65;;;;;;;20.26;40.99;101275.00;143757;570;46010;-86
2021/04/25 10:40:36;;;;;;;11.77;8.27;;;;;;;20.45;42.09;101264.94;143757;595;46010;-92
2021/04/25 10:43:28;;;;;;;9.23;5.60;;;;;;;20.60;40.67;101251.63;143755;585;46023;-94
2021/04/25 10:46:00;;;;;;;8.32;5.80;;;;;;;20.51;41.46;101242.38;143757;569;46031;-89
2021/04/25 10:48:37;;;;;;;8.32;5.78;;;;;;;20.34;42.76;101256.75;143758;569;46018;-91
2021/04/25 10:51:13;;;;;;;8.30;5.40;;;;;;;20.79;42.00;101251.38;143760;598;45019;-88
2021/04/25 10:53:46;;;;;;;8.68;5.50;;;;;;;20.89;42.18;101240.97;143757;607;45910;-91
2021/04/25 10:56:23;;;;;;;9.23;6.40;;;;;;;21.07;42.67;101252.28;143755;592;47013;-91
2021/04/25 10:59:24;;;;;;;16.12;10.48;;;;;;;20.98;41.49;101239.53;143760;564;45010;-89
2021/04/25 11:01:51;;;;;;;15.95;9.23;;;;;;;21.03;40.93;101243.59;143755;589;46010;-87
2021/04/25 11:04:56;;;;;;;20.88;13.68;;;;;;;20.75;40.76;101231.16;143754;604;46022;-94
2021/04/25 11:07:43;;;;;;;9.68;6.70;;;;;;;20.86;41.40;101236.69;143756;658;46010;-91
2021/04/25 11:10:12;;;;;;;8.15;5.55;;;;;;;20.60;39.00;101220.47;143756;617;46010;-90
2021/04/25 11:12:45;;;;;;;7.80;5.03;;;;;;;20.68;39.50;101230.69;143757;567;47019;-91
2021/04/25 11:15:49;;;;;;;7.53;5.62;;;;;;;20.48;40.79;101215.03;143752;594;46012;-91
2021/04/25 11:19:10;;;;;;;9.55;6.12;;;;;;;20.47;41.16;101224.84;143756;570;45014;-89
2021/04/25 11:21:55;;;;;;;9.75;5.75;;;;;;;20.30;42.04;101228.56;143754;564;45018;-91
2021/04/25 11:24:32;;;;;;;9.32;5.87;;;;;;;19.87;42.50;101231.97;143754;573;48012;-89
2021/04/25 11:27:01;;;;;;;7.75;5.45;;;;;;;19.72;42.91;101223.03;143754;706;47012;-90
2021/04/25 11:30:00;;;;;;;7.55;5.55;;;;;;;19.63;43.70;101204.94;143754;643;46010;-93
2021/04/25 11:32:30;;;;;;;8.23;5.75;;;;;;;19.58;43.97;101220.31;143756;579;46020;-93
2021/04/25 11:35:10;;;;;;;9.52;5.50;;;;;;;19.57;42.99;101223.94;143758;583;46018;-92
2021/04/25 11:37:38;;;;;;;8.40;5.10;;;;;;;19.60;42.76;101227.28;143754;578;46012;-87
2021/04/25 11:42:49;;;;;;;8.13;5.30;;;;;;;19.73;43.35;101223.91;143759;611;45021;-93
2021/04/25 11:45:29;;;;;;;7.72;5.32;;;;;;;20.00;42.29;101224.13;143762;566;45012;-90
2021/04/25 11:48:05;;;;;;;7.37;5.10;;;;;;;20.09;41.88;101222.69;143747;589;46015;-91
2021/04/25 11:50:40;;;;;;;7.32;4.93;;;;;;;19.96;40.38;101225.25;143757;603;45012;-92